Time;durP1;ratioP1;P1;durP2;ratioP2;P2;SDS_P1;SDS_P2;PMS_P1;PMS_P2;Temp;Humidity;BMP_temperature;BMP_pressure;BME280_temperature;BME280_humidity;BME280_pressure;Samples;Min_cycle;Max_cycle;Signal;HPM_P1;HPM_P2
2023/08/16 00:01:58;;;;;;;7.03;4.73;;;;;;;-145.18;100.00;46660.41;5033944;28;20103;-63
2023/08/16 00:04:23;;;;;;;8.30;4.63;;;;;;;-145.18;100.00;46660.41;5040765;28;20836;-61
2023/08/16 00:06:49;;;;;;;5.67;4.30;;;;;;;-145.18;100.00;46636.94;5033920;28;20032;-61
2023/08/16 00:09:17;;;;;;;8.97;5.13;;;;;;;-145.18;100.00;46660.41;5033976;28;20037;-62
2023/08/16 00:11:43;;;;;;;7.27;4.50;;;;;;;-145.18;100.00;46660.41;5034432;28;20080;-61
2023/08/16 00:14:08;;;;;;;11.10;5.27;;;;;;;-145.18;100.00;46660.41;5033070;28;20412;-63
2023/08/16 00:16:34;;;;;;;8.80;6.30;;;;;;;-145.18;100.00;46636.94;5034104;28;20041;-63
2023/08/16 00:18:59;;;;;;;10.03;5.87;;;;;;;-145.18;100.00;46676.03;5033458;28;20481;-63
2023/08/16 00:21:24;;;;;;;9.70;5.90;;;;;;;-145.18;100.00;46638.91;5034163;28;20048;-63
2023/08/16 00:23:50;;;;;;;9.73;6.80;;;;;;;-145.18;100.00;46642.81;5033214;28;20083;-63
2023/08/16 00:26:15;;;;;;;8.67;5.43;;;;;;;-145.18;100.00;46660.41;5033910;28;20084;-63
2023/08/16 00:28:42;;;;;;;13.50;6.33;;;;;;;-145.18;100.00;46636.94;5033508;28;20107;-63
2023/08/16 00:31:08;;;;;;;9.60;6.33;;;;;;;-145.18;100.00;46660.41;5032652;28;20485;-63
2023/08/16 00:33:33;;;;;;;9.77;6.03;;;;;;;-145.18;100.00;46660.41;5033883;28;20033;-63
2023/08/16 00:35:58;;;;;;;9.30;6.70;;;;;;;-145.18;100.00;46638.91;5031923;28;20037;-63
2023/08/16 00:38:24;;;;;;;9.47;5.80;;;;;;;-145.18;100.00;46660.41;5033695;28;20084;-63
2023/08/16 00:40:50;;;;;;;11.57;5.73;;;;;;;-145.18;100.00;46638.91;5032725;28;20029;-63
2023/08/16 00:43:17;;;;;;;8.20;5.27;;;;;;;-145.18;100.00;46660.41;5033453;28;20088;-61
2023/08/16 00:45:45;;;;;;;8.30;5.50;;;;;;;-145.18;100.00;46660.41;5032855;28;20037;-63
2023/08/16 00:48:11;;;;;;;7.57;5.53;;;;;;;-145.18;100.00;46638.91;5033029;28;20037;-63
2023/08/16 00:50:37;;;;;;;7.47;5.80;;;;;;;-145.18;100.00;46660.41;5029542;28;20069;-63
2023/08/16 00:53:02;;;;;;;8.10;5.93;;;;;;;-145.18;100.00;46638.91;5031870;28;20057;-63
2023/08/16 00:55:28;;;;;;;8.37;5.30;;;;;;;-145.18;100.00;46638.91;5032973;28;20432;-63
2023/08/16 00:57:54;;;;;;;9.77;5.20;;;;;;;-145.18;100.00;46676.03;5033491;28;20095;-63
2023/08/16 01:00:20;;;;;;;10.07;5.33;;;;;;;-145.18;100.00;46636.94;5032690;28;20055;-63
2023/08/16 01:02:45;;;;;;;7.07;5.77;;;;;;;-145.18;100.00;46638.91;5033078;28;20404;-63
2023/08/16 01:05:11;;;;;;;10.60;5.77;;;;;;;-145.18;100.00;46636.94;5031498;28;20040;-63
2023/08/16 01:07:36;;;;;;;10.90;6.57;;;;;;;-145.18;100.00;46642.81;5033403;28;20040;-61
2023/08/16 01:10:03;;;;;;;8.17;6.40;;;;;;;-145.18;100.00;46636.94;5031738;28;20470;-63
2023/08/16 01:12:47;;;;;;;13.27;6.37;;;;;;;-145.18;100.00;46638.91;5033111;28;20029;-63
2023/08/16 01:15:19;;;;;;;9.10;6.50;;;;;;;-145.18;100.00;46660.41;5031489;28;20029;-63
2023/08/16 01:17:45;;;;;;;11.97;7.30;;;;;;;-145.18;100.00;46660.41;5032960;28;20101;-63
2023/08/16 01:20:14;;;;;;;11.07;7.10;;;;;;;-145.18;100.00;46676.03;5032896;28;20047;-63
2023/08/16 01:23:04;;;;;;;9.23;7.00;;;;;;;-145.18;100.00;46660.41;5033041;28;20026;-63
2023/08/16 01:25:53;;;;;;;12.80;6.60;;;;;;;-145.18;100.00;46660.41;5032201;28;20037;-63
2023/08/16 01:28:19;;;;;;;11.43;6.90;;;;;;;-145.18;100.00;46660.41;5031446;28;20063;-63
2023/08/16 01:30:45;;;;;;;14.97;7.60;;;;;;;-145.18;100.00;46660.41;5031572;28;20038;-63
2023/08/16 01:33:12;;;;;;;10.70;6.43;;;;;;;-145.18;100.00;46660.41;5031308;28;20036;-63
2023/08/16 01:35:38;;;;;;;12.53;7.07;;;;;;;-145.18;100.00;46660.41;5032798;28;20037;-63
2023/08/16 01:38:05;;;;;;;14.03;7.93;;;;;;;-145.18;100.00;46660.41;5032365;28;20033;-63
2023/08/16 01:40:37;;;;;;;15.10;8.33;;;;;;;-145.18;100.00;46660.41;5032048;28;20082;-63
2023/08/16 01:43:06;;;;;;;17.03;8.87;;;;;;;-145.18;100.00;46660.41;5032599;28;20033;-63
2023/08/16 01:45:32;;;;;;;14.07;7.97;;;;;;;-145.18;100.00;46660.41;5031802;28;20029;-63
2023/08/16 01:48:00;;;;;;;15.17;9.13;;;;;;;-145.18;100.00;46660.41;5030794;28;20048;-63
2023/08/16 01:50:25;;;;;;;13.97;8.40;;;;;;;-145.18;100.00;46660.41;5030617;28;20105;-63
2023/08/16 01:52:51;;;;;;;13.13;7.73;;;;;;;-145.18;100.00;46660.41;5031676;28;20168;-63
2023/08/16 01:55:17;;;;;;;15.03;9.60;;;;;;;-145.18;100.00;46660.41;5032356;28;21136;-63
2023/08/16 01:57:42;;;;;;;18.87;8.37;;;;;;;-145.18;100.00;46660.41;5031889;28;20041;-63
2023/08/16 02:00:09;;;;;;;15.90;8.90;;;;;;;-145.18;100.00;46660.41;5031644;28;20030;-63
2023/08/16 02:02:36;;;;;;;14.87;8.83;;;;;;;-145.18;100.00;46660.41;5031949;28;20374;-63
2023/08/16 02:05:01;;;;;;;15.00;9.40;;;;;;;-145.18;100.00;46660.41;5031921;28;20037;-63
2023/08/16 02:07:27;;;;;;;15.17;8.57;;;;;;;-145.18;100.00;46660.41;5031906;28;20029;-63
2023/08/16 02:09:52;;;;;;;17.43;8.97;;;;;;;-145.18;100.00;46660.41;5032301;28;20496;-63
2023/08/16 02:12:18;;;;;;;12.47;8.83;;;;;;;-145.18;100.00;46660.41;5030570;28;20033;-63
2023/08/16 02:14:43;;;;;;;14.33;8.57;;;;;;;-145.18;100.00;46660.41;5032325;28;20041;-63
2023/08/16 02:17:08;;;;;;;12.40;9.00;;;;;;;-145.18;100.00;46660.41;5031594;28;20029;-63
2023/08/16 02:19:34;;;;;;;12.63;8.73;;;;;;;-145.18;100.00;46660.41;5030654;28;20029;-63
2023/08/16 02:21:59;;;;;;;11.63;7.93;;;;;;;-145.18;100.00;46660.41;5031542;28;20171;-63
2023/08/16 02:24:24;;;;;;;13.63;8.37;;;;;;;-145.18;100.00;46660.41;5031107;28;20128;-63
2023/08/16 02:26:50;;;;;;;15.97;8.93;;;;;;;-145.18;100.00;46660.41;5031628;28;20038;-60
2023/08/16 02:29:15;;;;;;;14.73;9.90;;;;;;;-145.18;100.00;46660.41;5031275;28;20085;-60
2023/08/16 02:31:41;;;;;;;12.57;8.83;;;;;;;-145.18;100.00;46660.41;5029486;28;20409;-61
2023/08/16 02:34:06;;;;;;;14.47;8.50;;;;;;;-145.18;100.00;46660.41;5031707;28;20040;-61
2023/08/16 02:36:31;;;;;;;11.63;8.17;;;;;;;-145.18;100.00;46660.41;5029784;28;20600;-61
2023/08/16 02:38:57;;;;;;;14.57;7.70;;;;;;;-145.18;100.00;46660.41;5031584;28;20041;-58
2023/08/16 02:41:22;;;;;;;12.03;8.13;;;;;;;-145.18;100.00;46660.41;5029908;28;20136;-60
2023/08/16 02:43:47;;;;;;;12.67;7.80;;;;;;;-145.18;100.00;46660.41;5031057;28;20033;-59
2023/08/16 02:46:13;;;;;;;12.57;7.83;;;;;;;-145.18;100.00;46660.41;5031537;28;20045;-60
2023/08/16 02:48:38;;;;;;;10.73;6.97;;;;;;;-145.18;100.00;46660.41;5031377;28;20061;-61
2023/08/16 02:51:03;;;;;;;12.20;6.97;;;;;;;-145.18;100.00;46660.41;5031123;28;20034;-60
2023/08/16 02:53:29;;;;;;;10.60;6.83;;;;;;;-145.18;100.00;46660.41;5031350;28;20056;-61
2023/08/16 02:55:54;;;;;;;16.53;7.23;;;;;;;-145.18;100.00;46660.41;5031412;28;20071;-61
2023/08/16 02:58:20;;;;;;;11.77;6.83;;;;;;;-145.18;100.00;46660.41;5029930;28;20045;-60
2023/08/16 03:00:50;;;;;;;11.77;6.93;;;;;;;-145.18;100.00;46660.41;5029164;28;20052;-60
2023/08/16 03:03:15;;;;;;;9.37;6.43;;;;;;;-145.18;100.00;46636.94;5031004;28;20045;-60
2023/08/16 03:05:41;;;;;;;9.03;6.53;;;;;;;-145.18;100.00;46660.41;5030604;28;20079;-60
2023/08/16 03:08:06;;;;;;;12.00;7.03;;;;;;;-145.18;100.00;46660.41;5031107;28;20041;-60
2023/08/16 03:10:31;;;;;;;10.43;7.03;;;;;;;-145.18;100.00;46660.41;5031186;28;20370;-60
2023/08/16 03:12:57;;;;;;;14.53;6.57;;;;;;;-145.18;100.00;46660.41;5030922;28;20033;-60
2023/08/16 03:15:23;;;;;;;13.87;6.47;;;;;;;-145.18;100.00;46676.03;5030674;28;20041;-60
2023/08/16 03:17:48;;;;;;;9.70;6.53;;;;;;;-145.18;100.00;46660.41;5030824;28;20037;-60
2023/08/16 03:20:13;;;;;;;9.37;6.23;;;;;;;-145.18;100.00;46660.41;5030855;28;20503;-61
2023/08/16 03:22:39;;;;;;;12.10;6.97;;;;;;;-145.18;100.00;46660.41;5030738;28;20038;-60
2023/08/16 03:25:04;;;;;;;8.97;5.60;;;;;;;-145.18;100.00;46660.41;5031239;28;20410;-60
2023/08/16 03:27:30;;;;;;;9.43;5.97;;;;;;;-145.18;100.00;46660.41;5029588;28;20053;-60
2023/08/16 03:29:55;;;;;;;11.13;6.40;;;;;;;-145.18;100.00;46660.41;5030542;28;20064;-61
2023/08/16 03:32:21;;;;;;;9.80;6.43;;;;;;;-145.18;100.00;46660.41;5028855;28;20057;-60
2023/08/16 03:34:46;;;;;;;9.50;6.10;;;;;;;-145.18;100.00;46660.41;5031060;28;20104;-60
2023/08/16 03:37:11;;;;;;;8.53;6.20;;;;;;;-145.18;100.00;46660.41;5030777;28;20071;-63
2023/08/16 03:39:37;;;;;;;11.20;6.00;;;;;;;-145.18;100.00;46660.41;5031203;28;20145;-63
2023/08/16 03:42:02;;;;;;;11.80;6.50;;;;;;;-145.18;100.00;46660.41;5030673;28;20388;-63
2023/08/16 03:44:28;;;;;;;11.30;6.30;;;;;;;-145.18;100.00;46660.41;5030597;28;20037;-64
2023/08/16 03:46:53;;;;;;;7.77;6.10;;;;;;;-145.18;100.00;46660.41;5030398;28;20037;-63
2023/08/16 03:49:18;;;;;;;13.10;6.80;;;;;;;-145.18;100.00;46660.41;5030323;28;20033;-63
2023/08/16 03:51:44;;;;;;;11.40;6.83;;;;;;;-145.18;100.00;46660.41;5030638;28;20132;-63
2023/08/16 03:54:09;;;;;;;8.63;6.20;;;;;;;-145.18;100.00;46660.41;5029989;28;20110;-63
2023/08/16 03:56:34;;;;;;;9.27;5.70;;;;;;;-145.18;100.00;46660.41;5030850;28;20033;-62
2023/08/16 03:59:00;;;;;;;11.93;6.33;;;;;;;-145.18;100.00;46660.41;5027715;28;20485;-64
2023/08/16 04:01:25;;;;;;;9.80;6.20;;;;;;;-145.18;100.00;46660.41;5030376;28;20052;-63
2023/08/16 04:03:51;;;;;;;8.67;5.93;;;;;;;-145.18;100.00;46660.41;5029964;28;20037;-63
2023/08/16 04:06:19;;;;;;;9.17;6.50;;;;;;;-145.18;100.00;46660.41;5030492;28;20114;-63
2023/08/16 04:08:45;;;;;;;8.93;6.73;;;;;;;-145.18;100.00;46660.41;5029458;28;20040;-64
2023/08/16 04:11:10;;;;;;;9.37;6.53;;;;;;;-145.18;100.00;46660.41;5030261;28;20037;-63
2023/08/16 04:13:35;;;;;;;17.70;6.73;;;;;;;-145.18;100.00;46660.41;5029029;28;20068;-64
2023/08/16 04:16:01;;;;;;;10.83;6.33;;;;;;;-145.18;100.00;46660.41;5031330;28;20037;-64
2023/08/16 04:18:26;;;;;;;11.13;6.67;;;;;;;-145.18;100.00;46660.41;5033745;28;20051;-64
2023/08/16 04:20:52;;;;;;;9.10;6.53;;;;;;;-145.18;100.00;46660.41;5033777;28;20400;-64
2023/08/16 04:23:17;;;;;;;9.80;5.97;;;;;;;-145.18;100.00;46660.41;5034215;28;20049;-63
2023/08/16 04:25:42;;;;;;;10.33;6.63;;;;;;;-145.18;100.00;46660.41;5033957;28;20091;-63
2023/08/16 04:28:08;;;;;;;12.47;6.70;;;;;;;-145.18;100.00;46660.41;5033765;28;20087;-63
2023/08/16 04:30:34;;;;;;;14.30;6.77;;;;;;;-145.18;100.00;46660.41;5032276;28;20038;-63
2023/08/16 04:32:59;;;;;;;9.30;6.13;;;;;;;-145.18;100.00;46660.41;5034317;28;20033;-63
2023/08/16 04:35:24;;;;;;;11.33;6.97;;;;;;;-145.18;100.00;46660.41;5033803;28;20065;-63
2023/08/16 04:37:50;;;;;;;12.23;6.93;;;;;;;-145.18;100.00;46660.41;5033688;28;20128;-64
2023/08/16 04:40:15;;;;;;;12.13;6.27;;;;;;;-145.18;100.00;46660.41;5033366;28;20041;-64
2023/08/16 04:42:41;;;;;;;10.23;6.07;;;;;;;-145.18;100.00;46660.41;5033577;28;20033;-64
2023/08/16 04:45:07;;;;;;;8.83;6.73;;;;;;;-145.18;100.00;46660.41;5033107;28;20041;-63
2023/08/16 04:47:32;;;;;;;9.17;6.97;;;;;;;-145.18;100.00;46660.41;5032928;28;20032;-61
2023/08/16 04:49:58;;;;;;;12.83;7.00;;;;;;;-145.18;100.00;46660.41;5031939;28;20038;-60
2023/08/16 04:52:24;;;;;;;9.37;7.03;;;;;;;-145.18;100.00;46660.41;5031810;28;20038;-60
2023/08/16 04:54:49;;;;;;;10.33;7.23;;;;;;;-145.18;100.00;46660.41;5033938;28;20042;-60
2023/08/16 04:57:15;;;;;;;9.53;6.27;;;;;;;-145.18;100.00;46660.41;5033445;28;20439;-60
2023/08/16 04:59:40;;;;;;;9.60;6.83;;;;;;;-145.18;100.00;46660.41;5033445;28;20072;-60
2023/08/16 05:02:06;;;;;;;10.40;6.70;;;;;;;-145.18;100.00;46660.41;5032791;28;20033;-60
2023/08/16 05:04:31;;;;;;;10.83;7.07;;;;;;;-145.18;100.00;46660.41;5034275;28;20087;-60
2023/08/16 05:06:56;;;;;;;12.33;7.90;;;;;;;-145.18;100.00;46629.13;5034032;28;20033;-60
2023/08/16 05:09:22;;;;;;;9.97;6.47;;;;;;;-145.18;100.00;46660.41;5032581;28;20037;-60
2023/08/16 05:11:47;;;;;;;11.77;6.67;;;;;;;-145.18;100.00;46660.41;5033883;28;20045;-60
2023/08/16 05:14:13;;;;;;;12.73;6.83;;;;;;;-145.18;100.00;46625.22;5033718;28;20026;-58
2023/08/16 05:16:38;;;;;;;10.17;6.67;;;;;;;-145.18;100.00;46660.41;5034299;28;20044;-61
2023/08/16 05:19:03;;;;;;;13.57;7.43;;;;;;;-145.18;100.00;46635.00;5032881;28;20033;-60
2023/08/16 05:21:29;;;;;;;10.80;6.53;;;;;;;-145.18;100.00;46631.09;5033959;28;20033;-60
2023/08/16 05:23:54;;;;;;;10.17;6.13;;;;;;;-145.18;100.00;46633.06;5032458;28;20040;-60
2023/08/16 05:26:20;;;;;;;11.13;6.57;;;;;;;-145.18;100.00;46631.09;5033850;28;20030;-60
2023/08/16 05:28:45;;;;;;;10.00;6.70;;;;;;;-145.18;100.00;46629.13;5033566;28;20056;-61
2023/08/16 05:31:12;;;;;;;9.17;6.10;;;;;;;-145.18;100.00;46631.09;5033237;28;20531;-61
2023/08/16 05:33:38;;;;;;;9.67;6.07;;;;;;;-145.18;100.00;46629.13;5032885;28;20508;-60
2023/08/16 05:36:04;;;;;;;13.50;6.13;;;;;;;-145.18;100.00;46629.13;5033861;28;20159;-60
2023/08/16 05:38:30;;;;;;;8.60;5.87;;;;;;;-145.18;100.00;46631.09;5033380;28;20021;-60
2023/08/16 05:40:55;;;;;;;7.13;5.17;;;;;;;-145.18;100.00;46629.13;5033664;28;20037;-60
2023/08/16 05:43:21;;;;;;;11.47;6.37;;;;;;;-145.18;100.00;46635.00;5033353;28;20123;-60
2023/08/16 05:45:46;;;;;;;8.57;5.40;;;;;;;-145.18;100.00;46631.09;5033442;28;20046;-60
2023/08/16 05:48:11;;;;;;;8.77;5.60;;;;;;;-145.18;100.00;46638.91;5031505;28;20064;-60
2023/08/16 05:50:37;;;;;;;7.50;4.47;;;;;;;-145.18;100.00;46635.00;5032689;28;20063;-60
2023/08/16 05:53:03;;;;;;;6.40;5.17;;;;;;;-145.18;100.00;46644.78;5030583;28;20040;-60
2023/08/16 05:55:29;;;;;;;7.53;5.00;;;;;;;-145.18;100.00;46635.00;5023155;28;20033;-60
2023/08/16 05:57:54;;;;;;;10.73;5.20;;;;;;;-145.18;100.00;46640.88;5033051;28;20038;-63
2023/08/16 06:00:20;;;;;;;7.60;5.00;;;;;;;-145.18;100.00;46636.94;5031676;28;20033;-64
2023/08/16 06:02:45;;;;;;;9.63;5.07;;;;;;;-145.18;100.00;46640.88;5032981;28;20052;-62
2023/08/16 06:05:11;;;;;;;7.50;5.23;;;;;;;-145.18;100.00;46636.94;5033155;28;20147;-63
2023/08/16 06:07:36;;;;;;;7.60;5.47;;;;;;;-145.18;100.00;46638.91;5033037;28;20515;-63
2023/08/16 06:10:03;;;;;;;9.43;4.57;;;;;;;-145.18;100.00;46638.91;5032565;28;20017;-63
2023/08/16 06:12:29;;;;;;;7.07;4.70;;;;;;;-145.18;100.00;46636.94;5032707;28;20119;-63
2023/08/16 06:14:54;;;;;;;6.20;4.77;;;;;;;-145.18;100.00;46640.88;5032663;28;20037;-63
2023/08/16 06:17:19;;;;;;;9.03;4.70;;;;;;;-145.18;100.00;46640.88;5031336;28;20121;-62
2023/08/16 06:19:45;;;;;;;7.07;5.00;;;;;;;-145.18;100.00;46635.00;5032562;28;20060;-63
2023/08/16 06:22:10;;;;;;;8.93;5.33;;;;;;;-145.18;100.00;46636.94;5032453;28;20030;-63
2023/08/16 06:24:37;;;;;;;6.67;5.57;;;;;;;-145.18;100.00;46635.00;5032953;28;20053;-63
2023/08/16 06:27:02;;;;;;;8.27;4.83;;;;;;;-145.18;100.00;46636.94;5031644;28;20033;-63
2023/08/16 06:29:28;;;;;;;6.43;4.97;;;;;;;-145.18;100.00;46635.00;5032636;28;20065;-63
2023/08/16 06:31:55;;;;;;;9.23;5.43;;;;;;;-145.18;100.00;46636.94;5032413;28;20033;-63
2023/08/16 06:34:21;;;;;;;10.43;5.73;;;;;;;-145.18;100.00;46633.06;5032824;28;20032;-63
2023/08/16 06:36:49;;;;;;;8.83;5.60;;;;;;;-145.18;100.00;46635.00;5032539;28;20409;-63
2023/08/16 06:39:14;;;;;;;9.80;6.37;;;;;;;-145.18;100.00;46633.06;5031166;28;20041;-63
2023/08/16 06:41:39;;;;;;;11.57;5.73;;;;;;;-145.18;100.00;46633.06;5032170;28;20072;-63
2023/08/16 06:44:05;;;;;;;9.83;6.00;;;;;;;-145.18;100.00;46631.09;5032570;28;20080;-63
2023/08/16 06:46:31;;;;;;;10.53;6.20;;;;;;;-145.18;100.00;46631.09;5030953;28;20098;-63
2023/08/16 06:48:56;;;;;;;9.83;5.60;;;;;;;-145.18;100.00;46635.00;5032299;28;20025;-63
2023/08/16 06:51:22;;;;;;;12.10;6.03;;;;;;;-145.18;100.00;46633.06;5031915;28;20404;-63
2023/08/16 06:53:49;;;;;;;7.70;5.10;;;;;;;-145.18;100.00;46633.06;5031981;28;20029;-63
2023/08/16 06:56:14;;;;;;;8.47;6.00;;;;;;;-145.18;100.00;46633.06;5032479;28;20061;-63
2023/08/16 06:58:41;;;;;;;6.70;5.23;;;;;;;-145.18;100.00;46629.13;5030684;28;20021;-63
2023/08/16 07:01:08;;;;;;;10.37;5.40;;;;;;;-145.18;100.00;46629.13;5032216;28;20139;-63
2023/08/16 07:03:33;;;;;;;10.87;5.77;;;;;;;-145.18;100.00;46635.00;5032066;28;20039;-63
2023/08/16 07:05:59;;;;;;;9.10;6.07;;;;;;;-145.18;100.00;46635.00;5031923;28;20021;-63
2023/08/16 07:08:24;;;;;;;10.53;5.90;;;;;;;-145.18;100.00;46631.09;5027297;28;20030;-61
2023/08/16 07:10:49;;;;;;;7.87;5.13;;;;;;;-145.18;100.00;46629.13;5031878;28;20053;-60
2023/08/16 07:13:15;;;;;;;8.30;5.20;;;;;;;-145.18;100.00;46636.94;5032133;28;20041;-61
2023/08/16 07:15:41;;;;;;;8.83;4.83;;;;;;;-145.18;100.00;46635.00;5031729;28;20083;-60
2023/08/16 07:18:06;;;;;;;8.07;5.10;;;;;;;-145.18;100.00;46633.06;5032090;28;20037;-61
2023/08/16 07:20:32;;;;;;;6.90;4.93;;;;;;;-145.18;100.00;46635.00;5031652;28;20374;-61
2023/08/16 07:22:58;;;;;;;6.90;4.77;;;;;;;-145.18;100.00;46638.91;5032112;28;20124;-61
2023/08/16 07:25:26;;;;;;;10.87;5.13;;;;;;;-145.18;100.00;46640.88;5031727;28;20389;-60
2023/08/16 07:27:51;;;;;;;8.23;5.20;;;;;;;-145.18;100.00;46636.94;5030491;28;20444;-60
2023/08/16 07:30:17;;;;;;;6.53;4.33;;;;;;;-145.18;100.00;46642.81;5031962;28;20511;-61
2023/08/16 07:32:42;;;;;;;6.53;4.40;;;;;;;-145.18;100.00;46644.78;5014364;28;20048;-61
2023/08/16 07:35:09;;;;;;;5.93;4.27;;;;;;;-145.18;100.00;46640.88;5031508;28;20162;-61
2023/08/16 07:37:34;;;;;;;4.83;3.73;;;;;;;-145.18;100.00;46642.81;5031786;28;20030;-60
2023/08/16 07:40:00;;;;;;;9.20;3.93;;;;;;;-145.18;100.00;46642.81;5013667;28;20025;-61
2023/08/16 07:42:25;;;;;;;6.37;3.50;;;;;;;-145.18;100.00;46648.69;5031693;28;20034;-61
2023/08/16 07:44:51;;;;;;;5.97;3.47;;;;;;;-145.18;100.00;46642.81;5031824;28;20099;-61
2023/08/16 07:47:16;;;;;;;5.50;3.20;;;;;;;-145.18;100.00;46648.69;5031934;28;20030;-61
2023/08/16 07:49:42;;;;;;;11.63;3.63;;;;;;;-145.18;100.00;46644.78;5030896;28;20219;-61
2023/08/16 07:52:07;;;;;;;5.73;4.10;;;;;;;-145.18;100.00;46652.59;5034228;28;20382;-61
2023/08/16 07:54:33;;;;;;;5.93;3.00;;;;;;;-145.18;100.00;46652.59;5035291;28;20045;-61
2023/08/16 07:56:58;;;;;;;7.20;3.07;;;;;;;-145.18;100.00;46648.69;5031202;28;20038;-61
2023/08/16 07:59:24;;;;;;;6.17;3.10;;;;;;;-145.18;100.00;46660.41;5029604;28;20057;-61
2023/08/16 08:01:51;;;;;;;4.33;2.40;;;;;;;-145.18;100.00;46660.41;5035546;28;20025;-61
2023/08/16 08:04:17;;;;;;;6.83;2.40;;;;;;;-145.18;100.00;46664.31;5034157;28;20041;-61
2023/08/16 08:06:43;;;;;;;2.07;1.50;;;;;;;-145.18;100.00;46664.31;5035004;28;20508;-61
2023/08/16 08:09:09;;;;;;;4.73;1.70;;;;;;;-145.18;100.00;46674.06;5035372;28;20025;-61
2023/08/16 08:11:36;;;;;;;9.07;2.33;;;;;;;-145.18;100.00;46672.13;5035104;28;20041;-60
2023/08/16 08:14:01;;;;;;;2.37;1.63;;;;;;;-145.18;100.00;46672.13;5034882;28;20024;-61
2023/08/16 08:16:26;;;;;;;6.53;2.50;;;;;;;-145.18;100.00;46672.13;5035427;28;20029;-63
2023/08/16 08:18:52;;;;;;;5.53;2.03;;;;;;;-145.18;100.00;46677.97;5034736;28;20106;-61
2023/08/16 08:21:17;;;;;;;3.40;1.80;;;;;;;-145.18;100.00;46666.25;5035285;28;20029;-61
2023/08/16 08:23:42;;;;;;;3.10;1.80;;;;;;;-145.18;100.00;46656.50;5033601;28;20106;-60
2023/08/16 08:26:08;;;;;;;4.90;1.90;;;;;;;-145.18;100.00;46658.44;5034127;28;20036;-61
2023/08/16 08:28:34;;;;;;;3.87;1.63;;;;;;;-145.18;100.00;46666.25;5034289;28;20053;-60
2023/08/16 08:31:03;;;;;;;4.33;1.80;;;;;;;-145.18;100.00;46570.53;5033535;28;20029;-61
2023/08/16 08:33:29;;;;;;;5.33;1.67;;;;;;;-145.18;100.00;46547.09;5035621;28;20024;-61
2023/08/16 08:35:55;;;;;;;3.40;1.80;;;;;;;-145.18;100.00;46549.06;5034299;28;20029;-60
2023/08/16 08:38:22;;;;;;;5.10;1.77;;;;;;;-145.18;100.00;46551.00;5034444;28;20079;-61
2023/08/16 08:40:47;;;;;;;4.20;1.97;;;;;;;-145.18;100.00;46539.28;5034856;28;20492;-60
2023/08/16 08:43:17;;;;;;;5.97;2.00;;;;;;;-145.18;100.00;46558.81;5026849;28;20105;-61
2023/08/16 08:45:46;;;;;;;4.00;2.17;;;;;;;-145.18;100.00;46582.25;5033879;28;20439;-61
2023/08/16 08:48:12;;;;;;;2.50;1.77;;;;;;;-145.18;100.00;46566.63;5033904;28;20017;-60
2023/08/16 08:50:40;;;;;;;3.57;2.00;;;;;;;-145.18;100.00;46609.59;5032692;28;20053;-60
2023/08/16 08:53:05;;;;;;;3.93;1.90;;;;;;;-145.18;100.00;46592.03;5034424;28;20022;-61
2023/08/16 08:55:32;;;;;;;5.03;2.43;;;;;;;-145.18;100.00;46597.88;5034081;28;20076;-61
2023/08/16 08:58:01;;;;;;;5.47;2.33;;;;;;;-145.18;100.00;46580.31;5034269;28;20035;-60
2023/08/16 09:00:29;;;;;;;3.40;1.80;;;;;;;-145.18;100.00;46572.50;5034268;28;20100;-61
2023/08/16 09:02:56;;;;;;;3.10;1.90;;;;;;;-145.18;100.00;46551.00;5033279;28;20121;-61
2023/08/16 09:05:22;;;;;;;6.30;2.10;;;;;;;-145.18;100.00;46545.16;5033961;28;20429;-61
2023/08/16 09:07:48;;;;;;;4.70;2.10;;;;;;;-145.18;100.00;46556.88;5034220;28;20028;-60
2023/08/16 09:10:15;;;;;;;7.97;2.30;;;;;;;-145.18;100.00;46549.06;5032831;28;20032;-61
2023/08/16 09:12:40;;;;;;;5.20;2.13;;;;;;;-145.18;100.00;46547.09;5034236;28;20025;-61
2023/08/16 09:15:07;;;;;;;4.17;2.10;;;;;;;-145.18;100.00;46545.16;5034082;28;20427;-61
2023/08/16 09:17:33;;;;;;;4.00;1.70;;;;;;;-145.18;100.00;46545.16;5033464;28;20059;-61
2023/08/16 09:20:05;;;;;;;4.93;1.70;;;;;;;-145.18;100.00;46552.97;5033929;28;20026;-60
2023/08/16 09:22:31;;;;;;;8.73;2.03;;;;;;;-145.18;100.00;46549.06;5033703;28;20473;-61
2023/08/16 09:24:58;;;;;;;4.10;2.20;;;;;;;-145.18;100.00;46547.09;5034006;28;20033;-61
2023/08/16 09:27:25;;;;;;;3.73;2.20;;;;;;;-145.18;100.00;46552.97;5032614;28;20045;-60
2023/08/16 09:29:53;;;;;;;2.37;1.90;;;;;;;-145.18;100.00;46554.91;5033644;28;20045;-61
2023/08/16 09:32:19;;;;;;;3.70;2.23;;;;;;;-145.18;100.00;46551.00;5033408;28;20033;-60
2023/08/16 09:34:45;;;;;;;6.53;2.40;;;;;;;-145.18;100.00;46554.91;5033453;28;20091;-61
2023/08/16 09:37:12;;;;;;;5.30;2.30;;;;;;;-145.18;100.00;46570.53;5033288;28;20075;-61
2023/08/16 09:39:38;;;;;;;4.70;2.30;;;;;;;-145.18;100.00;46562.72;5033504;28;20044;-61
2023/08/16 09:42:08;;;;;;;4.60;2.30;;;;;;;-145.18;100.00;46552.97;5033142;28;20026;-61
2023/08/16 09:44:36;;;;;;;2.97;2.30;;;;;;;-145.18;100.00;46547.09;5033696;28;20108;-60
2023/08/16 09:47:12;;;;;;;4.00;1.93;;;;;;;-145.18;100.00;46547.09;5032908;28;20773;-61
2023/08/16 09:49:39;;;;;;;3.93;2.20;;;;;;;-145.18;100.00;46551.00;5033162;28;20542;-60
2023/08/16 09:52:10;;;;;;;3.47;1.70;;;;;;;-145.18;100.00;46545.16;5033166;28;20036;-61
2023/08/16 09:54:36;;;;;;;2.90;1.60;;;;;;;-145.18;100.00;46558.81;5025401;28;20033;-60
2023/08/16 09:57:01;;;;;;;2.30;1.70;;;;;;;-145.18;100.00;46560.78;5024138;28;20053;-60
2023/08/16 09:59:30;;;;;;;7.50;1.70;;;;;;;-145.18;100.00;46554.91;5033320;28;20059;-61
2023/08/16 10:01:56;;;;;;;4.00;1.40;;;;;;;-145.18;100.00;46568.59;5032759;28;20031;-60
2023/08/16 10:04:22;;;;;;;5.10;1.77;;;;;;;-145.18;100.00;46545.16;5031541;28;20506;-61
2023/08/16 10:06:49;;;;;;;2.93;1.67;;;;;;;-145.18;100.00;46551.00;5033069;28;20037;-61
2023/08/16 10:09:15;;;;;;;5.03;1.47;;;;;;;-145.18;100.00;46535.38;5032751;28;20477;-60
2023/08/16 10:11:42;;;;;;;1.97;1.40;;;;;;;-145.18;100.00;46551.00;5033124;28;20064;-60
2023/08/16 10:14:08;;;;;;;4.20;2.20;;;;;;;-145.18;100.00;46556.88;5031782;28;20068;-61
2023/08/16 10:16:38;;;;;;;3.83;1.40;;;;;;;-145.18;100.00;46564.69;5031529;28;20053;-61
2023/08/16 10:19:07;;;;;;;3.03;1.87;;;;;;;-145.18;100.00;46785.41;5032462;28;20401;-60
2023/08/16 10:21:37;;;;;;;3.60;1.20;;;;;;;-145.18;100.00;47033.50;5032593;28;20117;-61
2023/08/16 10:24:05;;;;;;;5.77;1.50;;;;;;;-145.18;100.00;46773.69;5032600;28;20079;-60
2023/08/16 10:26:34;;;;;;;3.58;1.52;;;;;;;-145.18;100.00;46896.75;5032893;28;20040;-58
2023/08/16 10:29:07;;;;;;;2.40;1.20;;;;;;;-145.18;100.00;47139.00;5030346;28;20148;-58
2023/08/16 10:31:38;;;;;;;2.73;1.30;;;;;;;-145.18;100.00;47137.03;5031773;28;20469;-61
2023/08/16 10:34:07;;;;;;;2.37;1.70;;;;;;;-145.18;100.00;47080.38;5031468;28;20681;-58
2023/08/16 10:36:33;;;;;;;4.03;1.23;;;;;;;-145.18;100.00;47086.25;5032543;28;20176;-59
2023/08/16 10:38:59;;;;;;;2.83;1.40;;;;;;;-145.18;100.00;47060.84;5032663;28;20465;-59
2023/08/16 10:41:25;;;;;;;2.20;1.33;;;;;;;-145.18;100.00;47043.28;5032427;28;20033;-58
2023/08/16 10:43:52;;;;;;;3.88;1.10;;;;;;;-145.18;100.00;47037.41;5032056;28;20033;-58
2023/08/16 10:46:33;;;;;;;4.50;1.13;;;;;;;-145.18;100.00;47049.13;5032025;28;20037;-59
2023/08/16 10:49:00;;;;;;;2.08;1.00;;;;;;;-145.18;100.00;47031.53;5032200;28;20025;-58
2023/08/16 10:51:26;;;;;;;1.63;1.10;;;;;;;-145.18;100.00;47015.91;5027485;28;20037;-58
2023/08/16 10:53:56;;;;;;;2.92;1.10;;;;;;;-145.18;100.00;47017.88;5032244;28;20052;-59
2023/08/16 10:56:21;;;;;;;1.33;0.95;;;;;;;-145.18;100.00;47015.91;5032294;28;20625;-59
2023/08/16 10:58:49;;;;;;;3.97;1.08;;;;;;;-145.18;100.00;47012.00;5031851;28;20034;-58
2023/08/16 11:01:15;;;;;;;1.92;1.23;;;;;;;-145.18;100.00;46994.44;5032090;28;20040;-59
2023/08/16 11:03:43;;;;;;;2.72;1.33;;;;;;;-145.18;100.00;47000.28;5031850;28;20025;-59